Time;durP1;ratioP1;P1;durP2;ratioP2;P2;SDS_P1;SDS_P2;PMS_P1;PMS_P2;Temp;Humidity;BMP_temperature;BMP_pressure;BME280_temperature;BME280_humidity;BME280_pressure;Samples;Min_cycle;Max_cycle;Signal;HPM_P1;HPM_P2
2022/07/06 00:01:50;;;;;;;3.03;2.60;;;17.40;99.90;;;;;;5053577;28;20234;-86
2022/07/06 00:04:17;;;;;;;4.35;2.85;;;17.60;99.90;;;;;;5035908;28;20226;-84
2022/07/06 00:06:43;;;;;;;3.35;2.72;;;;;;;;;;5031779;28;20231;-85
2022/07/06 00:09:09;;;;;;;3.83;2.83;;;17.50;99.90;;;;;;5015694;28;20176;-85
2022/07/06 00:11:35;;;;;;;3.15;2.80;;;;;;;;;;5033035;28;20223;-85
2022/07/06 00:14:01;;;;;;;3.13;2.70;;;;;;;;;;5015638;28;20189;-85
2022/07/06 00:16:28;;;;;;;4.32;3.08;;;;;;;;;;5016075;28;20833;-85
2022/07/06 00:18:53;;;;;;;3.15;2.38;;;17.20;99.90;;;;;;5034643;28;20223;-85
2022/07/06 00:21:19;;;;;;;3.33;2.88;;;;;;;;;;5019945;28;20268;-85
2022/07/06 00:23:45;;;;;;;4.50;2.17;;;17.70;99.90;;;;;;5019621;28;20180;-85
2022/07/06 00:26:11;;;;;;;2.85;2.55;;;;;;;;;;5019627;28;20172;-85
2022/07/06 00:28:37;;;;;;;3.42;2.95;;;17.20;99.90;;;;;;5019283;28;20604;-86
2022/07/06 00:31:02;;;;;;;4.53;3.53;;;16.90;99.90;;;;;;5019635;28;20227;-85
2022/07/06 00:33:28;;;;;;;6.53;3.83;;;17.60;99.90;;;;;;5037639;28;20652;-85
2022/07/06 00:35:54;;;;;;;8.93;5.80;;;;;;;;;;5003363;28;20667;-85
2022/07/06 00:38:20;;;;;;;6.88;5.22;;;;;;;;;;5018917;28;20224;-85
2022/07/06 00:40:45;;;;;;;4.70;4.13;;;16.80;99.90;;;;;;5019284;28;20267;-85
2022/07/06 00:43:11;;;;;;;6.28;4.43;;;;;;;;;;5036717;28;20208;-85
2022/07/06 00:45:38;;;;;;;6.05;4.53;;;;;;;;;;5019138;28;20183;-92
2022/07/06 00:48:04;;;;;;;6.30;5.13;;;;;;;;;;5036578;28;20234;-85
2022/07/06 00:50:30;;;;;;;4.22;3.45;;;;;;;;;;5036791;28;20188;-85
2022/07/06 00:52:59;;;;;;;4.85;3.75;;;17.10;99.90;;;;;;5036728;28;20230;-85
2022/07/06 00:55:28;;;;;;;4.05;2.83;;;17.20;99.90;;;;;;5019095;28;20271;-85
2022/07/06 00:57:55;;;;;;;2.28;2.08;;;16.90;99.90;;;;;;5036658;28;20278;-85
2022/07/06 01:00:22;;;;;;;2.67;2.00;;;17.20;99.90;;;;;;5036374;28;20727;-86
2022/07/06 01:02:48;;;;;;;2.33;1.83;;;16.70;99.90;;;;;;5036420;28;20175;-86
2022/07/06 01:05:15;;;;;;;1.83;1.50;;;17.20;99.90;;;;;;5019495;28;20236;-86
2022/07/06 01:07:43;;;;;;;2.05;1.85;;;17.20;99.90;;;;;;5036343;28;20187;-94
2022/07/06 01:10:12;;;;;;;2.38;1.98;;;17.60;99.90;;;;;;5036211;28;20172;-86
2022/07/06 01:12:40;;;;;;;4.20;2.20;;;17.10;99.90;;;;;;5002172;28;20188;-87
2022/07/06 01:15:11;;;;;;;3.13;2.30;;;17.60;99.90;;;;;;5036511;28;20180;-85
2022/07/06 01:17:39;;;;;;;2.33;2.10;;;17.20;99.90;;;;;;5036177;28;20266;-85
2022/07/06 01:20:14;;;;;;;3.00;1.98;;;17.00;99.90;;;;;;5036079;28;20693;-85
2022/07/06 01:22:41;;;;;;;2.45;1.88;;;17.40;99.90;;;;;;5018429;28;20180;-85
2022/07/06 01:25:07;;;;;;;2.95;2.00;;;;;;;;;;5018175;28;20188;-84
2022/07/06 01:27:37;;;;;;;2.47;2.20;;;17.00;99.90;;;;;;5036060;28;20252;-84
2022/07/06 01:30:06;;;;;;;2.45;2.08;;;17.50;99.90;;;;;;5035323;28;20161;-85
2022/07/06 01:32:31;;;;;;;2.95;1.95;;;17.00;99.90;;;;;;5018076;28;20546;-84
2022/07/06 01:34:57;;;;;;;3.55;2.17;;;;;;;;;;5034427;28;20172;-84
2022/07/06 01:37:23;;;;;;;2.35;1.73;;;;;;;;;;5017477;28;20204;-84
2022/07/06 01:39:49;;;;;;;2.05;1.67;;;;;;;;;;5017940;28;20626;-85
2022/07/06 01:42:17;;;;;;;2.38;1.83;;;;;;;;;;5017910;28;20185;-84
2022/07/06 01:44:43;;;;;;;2.20;1.50;;;17.50;99.90;;;;;;5035644;28;20183;-84
2022/07/06 01:47:08;;;;;;;1.88;1.67;;;17.20;99.90;;;;;;5017710;28;20332;-85
2022/07/06 01:49:34;;;;;;;2.50;1.90;;;;;;;;;;5035589;28;20216;-84
2022/07/06 01:52:00;;;;;;;1.92;1.52;;;;;;;;;;5017692;28;20661;-84
2022/07/06 01:54:26;;;;;;;1.75;1.52;;;;;;;;;;5017936;28;20181;-85
2022/07/06 01:56:52;;;;;;;1.75;1.40;;;16.90;99.90;;;;;;5035159;28;20630;-85
2022/07/06 01:59:18;;;;;;;1.65;1.50;;;;;;;;;;5017396;28;20219;-85
2022/07/06 02:01:44;;;;;;;1.58;1.25;;;;;;;;;;5017509;28;20183;-86
2022/07/06 02:04:10;;;;;;;2.17;1.60;;;;;;;;;;5017393;28;20189;-86
2022/07/06 02:06:36;;;;;;;1.75;1.35;;;;;;;;;;5032462;28;20239;-87
2022/07/06 02:09:01;;;;;;;2.45;1.75;;;17.40;99.90;;;;;;5070092;28;20551;-86
2022/07/06 02:11:27;;;;;;;2.03;1.65;;;;;;;;;;5069207;28;20254;-86
2022/07/06 02:13:53;;;;;;;1.73;1.63;;;17.40;99.90;;;;;;5072009;28;20561;-86
2022/07/06 02:16:19;;;;;;;1.30;1.20;;;;;;;;;;5055114;28;20229;-86
2022/07/06 02:18:45;;;;;;;1.10;1.00;;;16.80;99.90;;;;;;5069795;28;20229;-87
2022/07/06 02:21:11;;;;;;;1.42;1.02;;;;;;;;;;5039940;28;20640;-86
2022/07/06 02:23:37;;;;;;;1.23;1.10;;;17.30;99.90;;;;;;5062290;28;20325;-86
2022/07/06 02:26:03;;;;;;;1.50;1.20;;;17.20;99.90;;;;;;5063322;28;20184;-85
2022/07/06 02:28:29;;;;;;;2.70;1.33;;;17.20;99.90;;;;;;5067794;28;20171;-86
2022/07/06 02:30:55;;;;;;;1.05;0.88;;;;;;;;;;5072498;28;20540;-86
2022/07/06 02:33:21;;;;;;;1.17;1.02;;;17.10;99.90;;;;;;5074767;28;20178;-86
2022/07/06 02:35:47;;;;;;;1.10;0.90;;;;;;;;;;5074733;28;20193;-87
2022/07/06 02:38:13;;;;;;;0.85;0.85;;;;;;;;;;5044614;28;20218;-86
2022/07/06 02:40:39;;;;;;;1.15;1.05;;;17.00;99.90;;;;;;5059290;28;20651;-85
2022/07/06 02:43:05;;;;;;;0.80;0.80;;;;;;;;;;5064463;28;20186;-85
2022/07/06 02:45:31;;;;;;;1.13;1.00;;;;;;;;;;5064919;28;20187;-87
2022/07/06 02:47:57;;;;;;;1.05;0.90;;;17.40;99.90;;;;;;5062060;28;20176;-87
2022/07/06 02:50:23;;;;;;;0.77;0.77;;;;;;;;;;5069957;28;20694;-86
2022/07/06 02:52:49;;;;;;;2.50;0.90;;;;;;;;;;5061436;28;20180;-87
2022/07/06 02:55:15;;;;;;;1.10;1.00;;;;;;;;;;5038596;28;20183;-86
2022/07/06 02:57:41;;;;;;;0.52;0.52;;;16.90;99.90;;;;;;5081446;28;20203;-85
2022/07/06 03:00:09;;;;;;;0.55;0.55;;;17.10;99.90;;;;;;5086932;28;20186;-85
2022/07/06 03:02:35;;;;;;;0.75;0.70;;;;;;;;;;5067242;28;20229;-86
2022/07/06 03:05:01;;;;;;;1.40;0.70;;;;;;;;;;5086821;28;20179;-86
2022/07/06 03:07:29;;;;;;;1.02;0.60;;;17.10;99.90;;;;;;5080949;28;20191;-87
2022/07/06 03:09:55;;;;;;;0.52;0.52;;;;;;;;;;5073961;28;20202;-88
2022/07/06 03:12:21;;;;;;;1.60;0.57;;;;;;;;;;5073832;28;20628;-87
2022/07/06 03:14:47;;;;;;;0.40;0.40;;;;;;;;;;5073691;28;20243;-87
2022/07/06 03:17:13;;;;;;;0.50;0.50;;;;;;;;;;5060641;28;20649;-87
2022/07/06 03:19:39;;;;;;;0.50;0.50;;;16.80;99.90;;;;;;5066087;28;20175;-86
2022/07/06 03:22:04;;;;;;;0.90;0.65;;;16.80;99.90;;;;;;5063062;28;20523;-87
2022/07/06 03:24:30;;;;;;;2.25;1.08;;;;;;;;;;5049977;28;20187;-87
2022/07/06 03:26:56;;;;;;;2.42;0.82;;;16.60;99.90;;;;;;5044373;28;20188;-86
2022/07/06 03:29:22;;;;;;;0.77;0.77;;;;;;;;;;5066617;28;20195;-86
2022/07/06 03:31:48;;;;;;;0.82;0.82;;;;;;;;;;5064061;28;20180;-86
2022/07/06 03:34:14;;;;;;;1.13;1.02;;;16.40;99.90;;;;;;5059959;28;20210;-87
2022/07/06 03:36:39;;;;;;;0.90;0.90;;;;;;;;;;5078971;28;20171;-91
2022/07/06 03:39:06;;;;;;;1.40;1.20;;;;;;;;;;5074536;28;20171;-89
2022/07/06 03:41:32;;;;;;;1.45;1.15;;;16.70;99.90;;;;;;5083250;28;20187;-86
2022/07/06 03:43:58;;;;;;;1.95;1.38;;;16.50;99.90;;;;;;5096561;28;20202;-86
2022/07/06 03:46:24;;;;;;;1.17;1.13;;;;;;;;;;5055533;28;20188;-86
2022/07/06 03:48:50;;;;;;;0.90;0.90;;;;;;;;;;5079416;28;20180;-88
2022/07/06 03:51:16;;;;;;;1.15;1.08;;;;;;;;;;5060889;28;20172;-85
2022/07/06 03:53:41;;;;;;;1.05;0.98;;;15.90;99.90;;;;;;5090744;28;20211;-86
2022/07/06 03:58:52;;;;;;;0.70;0.70;;;15.80;99.90;;;;;;5090477;28;20230;-90
2022/07/06 04:01:18;;;;;;;2.15;1.33;;;;;;;;;;5055259;28;20171;-91
2022/07/06 04:03:44;;;;;;;0.70;0.70;;;;;;;;;;5078995;28;20201;-88
2022/07/06 04:06:10;;;;;;;1.05;1.00;;;16.00;99.90;;;;;;5081794;28;20290;-86
2022/07/06 04:08:38;;;;;;;1.10;1.00;;;;;;;;;;5048025;28;20288;-86
2022/07/06 04:11:04;;;;;;;1.33;1.23;;;;;;;;;;5073300;28;20186;-86
2022/07/06 04:13:30;;;;;;;1.30;1.20;;;15.50;99.90;;;;;;5054754;28;20587;-87
2022/07/06 04:15:55;;;;;;;1.27;1.10;;;15.50;99.90;;;;;;5059536;28;20183;-86
2022/07/06 04:18:21;;;;;;;1.45;1.35;;;;;;;;;;5054867;28;20221;-86
2022/07/06 04:20:47;;;;;;;1.45;1.35;;;;;;;;;;5071993;28;20585;-86
2022/07/06 04:23:13;;;;;;;3.15;1.38;;;15.30;99.90;;;;;;5069061;28;20200;-86
2022/07/06 04:25:39;;;;;;;1.20;1.10;;;;;;;;;;5052758;28;20195;-87
2022/07/06 04:28:05;;;;;;;1.20;1.10;;;;;;;;;;5052816;28;20254;-84
2022/07/06 04:30:31;;;;;;;1.15;0.98;;;15.90;99.90;;;;;;5072068;28;20186;-86
2022/07/06 04:32:57;;;;;;;1.27;1.17;;;15.30;99.90;;;;;;5054436;28;20549;-87
2022/07/06 04:35:22;;;;;;;1.58;1.48;;;15.20;99.90;;;;;;5052090;28;20267;-87
2022/07/06 04:37:48;;;;;;;1.45;1.20;;;15.70;99.90;;;;;;5046044;28;20629;-85
2022/07/06 04:40:14;;;;;;;0.90;0.90;;;;;;;;;;5064236;28;20188;-86
2022/07/06 04:42:40;;;;;;;1.83;1.40;;;15.30;99.90;;;;;;5066943;28;20184;-85
2022/07/06 04:45:07;;;;;;;1.25;1.15;;;15.30;99.90;;;;;;5068074;28;20711;-86
2022/07/06 04:47:32;;;;;;;1.50;1.40;;;15.40;99.90;;;;;;5068751;28;20249;-86
2022/07/06 04:49:58;;;;;;;2.13;1.25;;;15.50;99.90;;;;;;5051295;28;20175;-86
2022/07/06 04:52:23;;;;;;;0.98;0.95;;;15.40;99.90;;;;;;5070244;28;20187;-86
2022/07/06 04:54:49;;;;;;;1.45;1.17;;;;;;;;;;5036392;28;20330;-84
2022/07/06 04:57:16;;;;;;;1.30;1.20;;;;;;;;;;5052991;28;20214;-86
2022/07/06 04:59:41;;;;;;;1.00;0.90;;;15.70;99.90;;;;;;5066036;28;20183;-85
2022/07/06 05:02:07;;;;;;;1.10;0.90;;;;;;;;;;5044018;28;20198;-86
2022/07/06 05:04:33;;;;;;;1.38;1.27;;;;;;;;;;5064180;28;20180;-86
2022/07/06 05:06:59;;;;;;;0.95;0.88;;;;;;;;;;5053925;28;20608;-88
2022/07/06 05:09:25;;;;;;;0.90;0.90;;;;;;;;;;5046169;28;20210;-87
2022/07/06 05:11:51;;;;;;;1.10;1.00;;;15.40;99.90;;;;;;5056142;28;20637;-86
2022/07/06 05:14:17;;;;;;;1.52;1.00;;;;;;;;;;5055412;28;20207;-87
2022/07/06 05:16:43;;;;;;;0.90;0.90;;;15.40;99.90;;;;;;5055508;28;20178;-85
2022/07/06 05:22:31;;;;;;;1.38;1.27;;;;;;;;;;5275446;22;20245;-84
2022/07/06 05:24:57;;;;;;;1.58;0.90;;;;;;;;;;5075493;28;20179;-86
2022/07/06 05:27:24;;;;;;;0.80;0.80;;;;;;;;;;5076199;28;20267;-84
2022/07/06 05:29:49;;;;;;;1.30;1.20;;;15.30;99.90;;;;;;5075604;28;20175;-84
2022/07/06 05:32:15;;;;;;;1.20;1.05;;;15.60;99.90;;;;;;5075418;28;20180;-84
2022/07/06 05:34:41;;;;;;;0.80;0.80;;;;;;;;;;5076185;28;20266;-84
2022/07/06 05:37:07;;;;;;;1.33;1.23;;;;;;;;;;5073441;28;20225;-86
2022/07/06 05:39:32;;;;;;;1.35;1.25;;;15.50;99.90;;;;;;5091026;28;20187;-86
2022/07/06 05:41:58;;;;;;;0.90;0.90;;;15.70;99.90;;;;;;5091066;28;20176;-86
2022/07/06 05:44:24;;;;;;;1.23;0.95;;;;;;;;;;5075017;28;20264;-86
2022/07/06 05:46:50;;;;;;;1.52;1.42;;;;;;;;;;5075231;28;20183;-86
2022/07/06 05:52:00;;;;;;;1.75;1.33;;;15.20;99.90;;;;;;5072995;28;20177;-89
2022/07/06 05:54:25;;;;;;;2.20;1.30;;;15.20;99.90;;;;;;5089433;28;20187;-88
2022/07/06 05:56:51;;;;;;;1.30;1.20;;;;;;;;;;5073631;28;20182;-86
2022/07/06 05:59:17;;;;;;;1.25;1.13;;;;;;;;;;5073469;28;20187;-89
2022/07/06 06:01:43;;;;;;;1.70;1.58;;;;;;;;;;5072913;28;20632;-86
2022/07/06 06:04:09;;;;;;;1.33;1.17;;;;;;;;;;5071528;28;20179;-86
2022/07/06 06:06:35;;;;;;;1.60;1.30;;;;;;;;;;5089633;28;20317;-85
2022/07/06 06:09:01;;;;;;;1.48;1.38;;;15.70;99.90;;;;;;5073703;28;20692;-86
2022/07/06 06:11:27;;;;;;;1.40;1.30;;;;;;;;;;5073748;28;20187;-85
2022/07/06 06:13:53;;;;;;;1.35;1.25;;;;;;;;;;5070957;28;20207;-86
2022/07/06 06:16:19;;;;;;;1.73;1.02;;;;;;;;;;5063595;28;20176;-85
2022/07/06 06:18:45;;;;;;;1.40;1.30;;;;;;;;;;5080805;28;20702;-86
2022/07/06 06:21:11;;;;;;;1.25;1.10;;;;;;;;;;5069709;28;20249;-86
2022/07/06 06:23:36;;;;;;;2.72;1.52;;;15.40;99.90;;;;;;5054270;28;20803;-85
2022/07/06 06:26:02;;;;;;;2.35;1.52;;;;;;;;;;5068839;28;20258;-85
2022/07/06 06:28:28;;;;;;;1.83;1.20;;;;;;;;;;5064157;28;20184;-86
2022/07/06 06:30:54;;;;;;;2.85;1.98;;;15.30;99.90;;;;;;5086851;28;20671;-86
2022/07/06 06:33:21;;;;;;;4.43;2.15;;;15.80;99.90;;;;;;5081087;28;20305;-85
2022/07/06 06:35:49;;;;;;;3.25;2.00;;;15.50;99.90;;;;;;5078238;28;20271;-85
2022/07/06 06:38:15;;;;;;;5.28;1.98;;;15.60;99.90;;;;;;5064803;28;20199;-84
2022/07/06 06:40:41;;;;;;;1.75;1.65;;;15.60;99.90;;;;;;5056216;28;20384;-85
2022/07/06 06:43:07;;;;;;;3.33;2.30;;;15.60;99.90;;;;;;5079796;28;20218;-86
2022/07/06 06:45:33;;;;;;;2.13;1.75;;;;;;;;;;5062340;28;20174;-86
2022/07/06 06:47:59;;;;;;;4.07;2.30;;;15.50;99.90;;;;;;5076586;28;20215;-84
2022/07/06 06:50:25;;;;;;;5.50;3.05;;;;;;;;;;5046596;28;21490;-86
2022/07/06 06:52:51;;;;;;;3.65;2.30;;;;;;;;;;5063227;28;20183;-85
2022/07/06 06:55:17;;;;;;;1.98;1.65;;;15.80;99.90;;;;;;5064220;28;20270;-84
2022/07/06 06:57:43;;;;;;;1.38;1.27;;;16.00;99.90;;;;;;5069961;28;20207;-85
2022/07/06 07:00:09;;;;;;;2.78;1.95;;;16.00;99.90;;;;;;5066635;28;20663;-85
2022/07/06 07:02:35;;;;;;;3.95;2.10;;;;;;;;;;5061564;28;21047;-85
2022/07/06 07:05:02;;;;;;;1.50;1.40;;;16.40;99.90;;;;;;5068659;28;20213;-86
2022/07/06 07:07:28;;;;;;;1.92;1.60;;;;;;;;;;5052996;28;20180;-85
2022/07/06 07:09:54;;;;;;;1.05;0.95;;;;;;;;;;5068631;28;20187;-85
2022/07/06 07:12:20;;;;;;;0.98;0.98;;;;;;;;;;5052294;28;20223;-84
2022/07/06 07:14:47;;;;;;;2.72;1.27;;;;;;;;;;5064644;28;20195;-85
2022/07/06 07:17:13;;;;;;;1.85;1.50;;;16.00;99.90;;;;;;5058473;28;20723;-84
2022/07/06 07:19:39;;;;;;;1.58;1.40;;;16.30;99.90;;;;;;5052350;28;20271;-87
2022/07/06 07:22:05;;;;;;;1.15;1.10;;;;;;;;;;5051542;28;20175;-84
2022/07/06 07:24:31;;;;;;;1.60;1.50;;;16.20;99.90;;;;;;5069803;28;20187;-84
2022/07/06 07:26:56;;;;;;;2.08;1.45;;;16.30;99.90;;;;;;5066258;28;20666;-85
2022/07/06 07:29:22;;;;;;;1.88;1.60;;;16.40;99.90;;;;;;5058386;28;20259;-84
2022/07/06 07:31:48;;;;;;;1.38;1.27;;;;;;;;;;5059667;28;20218;-85
2022/07/06 07:34:14;;;;;;;1.65;1.55;;;;;;;;;;5069696;28;20330;-86
2022/07/06 07:36:40;;;;;;;1.02;1.00;;;;;;;;;;5060170;28;20194;-83
2022/07/06 07:39:06;;;;;;;1.13;0.93;;;;;;;;;;5079112;28;20219;-85
2022/07/06 07:41:32;;;;;;;1.35;1.25;;;;;;;;;;5064213;28;20285;-85
2022/07/06 07:43:58;;;;;;;1.58;1.48;;;;;;;;;;5061872;28;20267;-84
2022/07/06 07:46:24;;;;;;;1.25;1.15;;;16.30;99.90;;;;;;5081568;28;20229;-84
2022/07/06 07:48:50;;;;;;;1.33;1.23;;;;;;;;;;5059183;28;20289;-84
2022/07/06 07:51:16;;;;;;;1.20;1.10;;;;;;;;;;5080516;28;20181;-86
2022/07/06 07:53:41;;;;;;;2.53;1.27;;;16.10;99.90;;;;;;5063042;28;21023;-85
2022/07/06 07:56:07;;;;;;;1.20;1.10;;;16.50;99.90;;;;;;5076953;28;20184;-84
2022/07/06 07:58:33;;;;;;;1.25;1.15;;;;;;;;;;5061719;28;20202;-83
2022/07/06 08:01:00;;;;;;;1.20;1.10;;;16.50;99.90;;;;;;5062988;28;20241;-84
2022/07/06 08:03:26;;;;;;;1.38;1.27;;;17.10;99.90;;;;;;5081043;28;20206;-83
2022/07/06 08:05:52;;;;;;;1.83;0.90;;;;;;;;;;5075064;28;20636;-85
2022/07/06 08:08:18;;;;;;;1.00;1.00;;;16.80;99.90;;;;;;5061457;28;20226;-85
2022/07/06 08:10:44;;;;;;;1.15;1.00;;;;;;;;;;5062722;28;20188;-85
2022/07/06 08:13:10;;;;;;;1.00;0.82;;;16.80;99.90;;;;;;5061289;28;20686;-84
2022/07/06 08:15:36;;;;;;;0.90;0.90;;;16.80;99.90;;;;;;5061517;28;20184;-85
2022/07/06 08:18:03;;;;;;;0.82;0.82;;;17.00;99.90;;;;;;5060089;28;20204;-84
2022/07/06 08:20:29;;;;;;;0.70;0.70;;;16.80;99.90;;;;;;5063338;28;20229;-84
2022/07/06 08:22:55;;;;;;;1.00;0.90;;;16.80;99.90;;;;;;5060842;28;20366;-83
2022/07/06 08:25:21;;;;;;;0.75;0.75;;;17.00;99.90;;;;;;5063047;28;20236;-83
2022/07/06 08:27:46;;;;;;;0.95;0.85;;;16.80;99.90;;;;;;5070938;28;20183;-84
2022/07/06 08:30:12;;;;;;;1.23;1.02;;;17.40;99.90;;;;;;5072796;28;20179;-84
2022/07/06 08:32:42;;;;;;;0.77;0.77;;;17.00;99.90;;;;;;5067006;28;20238;-84
2022/07/06 08:35:09;;;;;;;0.65;0.65;;;16.80;99.90;;;;;;5068757;28;20175;-86
2022/07/06 08:37:34;;;;;;;4.13;0.80;;;17.20;99.90;;;;;;5070501;28;20276;-85
2022/07/06 08:40:00;;;;;;;4.07;1.63;;;;;;;;;;5070793;28;20215;-83
2022/07/06 08:42:36;;;;;;;0.80;0.80;;;17.40;99.90;;;;;;5064651;28;20187;-85
2022/07/06 08:45:06;;;;;;;0.60;0.60;;;17.30;99.90;;;;;;5063808;28;20178;-82
2022/07/06 08:47:32;;;;;;;3.03;1.45;;;;;;;;;;5065329;28;20275;-82
2022/07/06 08:49:58;;;;;;;1.58;1.23;;;17.40;99.90;;;;;;5082316;28;20851;-82
2022/07/06 08:52:24;;;;;;;0.95;0.90;;;17.00;99.90;;;;;;5068468;28;20229;-82
2022/07/06 08:54:50;;;;;;;0.77;0.77;;;17.60;99.90;;;;;;5055388;28;21001;-84
2022/07/06 08:57:17;;;;;;;1.23;0.93;;;17.60;99.90;;;;;;5069950;28;20214;-82
2022/07/06 08:59:42;;;;;;;0.60;0.60;;;17.40;99.90;;;;;;5074966;28;20551;-80
2022/07/06 09:02:10;;;;;;;0.80;0.80;;;17.30;99.90;;;;;;5076381;28;20175;-83
2022/07/06 09:04:37;;;;;;;0.63;0.63;;;17.30;99.90;;;;;;5076318;28;20284;-81
2022/07/06 09:07:03;;;;;;;0.60;0.60;;;17.30;99.90;;;;;;5076448;28;20184;-82
2022/07/06 09:09:32;;;;;;;0.80;0.80;;;17.50;99.90;;;;;;5076068;28;20175;-83
2022/07/06 09:11:59;;;;;;;0.77;0.77;;;;;;;;;;5076392;28;20624;-83
2022/07/06 09:14:25;;;;;;;0.88;0.88;;;17.10;99.90;;;;;;5076445;28;20183;-84
2022/07/06 09:17:05;;;;;;;0.70;0.70;;;17.30;99.90;;;;;;5075903;28;20187;-83
2022/07/06 09:19:32;;;;;;;0.70;0.70;;;16.90;99.90;;;;;;5076426;28;20175;-83
2022/07/06 09:21:58;;;;;;;0.60;0.60;;;17.60;99.90;;;;;;5075912;28;20766;-83
2022/07/06 09:24:25;;;;;;;0.88;0.88;;;16.90;99.90;;;;;;5091639;28;20235;-83
2022/07/06 09:26:53;;;;;;;0.70;0.70;;;16.80;99.90;;;;;;5064600;28;20273;-83
2022/07/06 09:29:24;;;;;;;2.42;0.80;;;17.70;99.90;;;;;;5056378;28;20172;-83
2022/07/06 09:32:01;;;;;;;1.35;0.70;;;17.30;99.90;;;;;;5056270;28;20156;-82
2022/07/06 09:34:44;;;;;;;1.30;0.88;;;17.30;99.90;;;;;;5057285;28;20172;-81
2022/07/06 09:37:10;;;;;;;0.90;0.63;;;17.20;99.90;;;;;;5056021;28;20200;-83
2022/07/06 09:39:36;;;;;;;1.88;1.13;;;17.10;99.90;;;;;;5055744;28;20182;-83
2022/07/06 09:42:03;;;;;;;1.25;0.90;;;17.10;99.90;;;;;;5066381;28;20239;-82
2022/07/06 09:44:36;;;;;;;0.77;0.77;;;17.10;99.90;;;;;;5083368;28;20175;-82
2022/07/06 09:47:04;;;;;;;1.58;1.05;;;17.10;99.90;;;;;;5074822;28;20217;-84
2022/07/06 09:49:30;;;;;;;1.60;1.27;;;17.20;99.90;;;;;;5082362;28;20184;-84
2022/07/06 09:51:58;;;;;;;0.80;0.80;;;17.10;99.90;;;;;;5069531;28;20184;-83
2022/07/06 09:54:24;;;;;;;0.93;0.88;;;17.10;99.90;;;;;;5096156;28;20164;-83
2022/07/06 09:56:51;;;;;;;0.70;0.70;;;16.80;99.90;;;;;;5080595;28;20174;-85
2022/07/06 09:59:19;;;;;;;0.93;0.90;;;17.10;99.90;;;;;;5079406;28;20179;-83
2022/07/06 10:01:45;;;;;;;0.70;0.70;;;17.10;99.90;;;;;;5077299;28;20180;-83
2022/07/06 10:04:12;;;;;;;1.13;1.02;;;16.70;99.90;;;;;;5065401;28;20225;-82
2022/07/06 10:06:39;;;;;;;0.70;0.70;;;;;;;;;;5088366;28;20234;-84
2022/07/06 10:09:07;;;;;;;1.17;1.05;;;17.60;99.90;;;;;;5103439;28;20174;-83
2022/07/06 10:11:37;;;;;;;1.38;0.93;;;17.90;99.90;;;;;;5088748;28;20232;-86
2022/07/06 10:14:05;;;;;;;0.85;0.80;;;18.80;99.90;;;;;;5087330;28;20171;-89
2022/07/06 10:16:31;;;;;;;1.00;0.90;;;18.40;99.90;;;;;;5074855;28;20171;-81
2022/07/06 10:18:58;;;;;;;3.33;1.30;;;18.70;99.90;;;;;;5065717;28;20199;-83
2022/07/06 10:21:25;;;;;;;0.70;0.70;;;18.80;99.90;;;;;;5048560;28;20186;-82
2022/07/06 10:23:51;;;;;;;0.60;0.60;;;18.70;99.90;;;;;;5065875;28;20253;-81
2022/07/06 10:26:18;;;;;;;0.80;0.70;;;18.60;99.90;;;;;;5081322;28;20176;-80
2022/07/06 10:28:44;;;;;;;0.95;0.95;;;18.40;99.90;;;;;;5054190;28;20199;-82
2022/07/06 10:31:10;;;;;;;0.90;0.90;;;18.40;99.90;;;;;;5061469;28;20191;-83
2022/07/06 10:33:38;;;;;;;0.70;0.70;;;18.60;99.90;;;;;;5067891;28;20198;-86
2022/07/06 10:36:05;;;;;;;1.00;0.82;;;18.70;99.90;;;;;;5068785;28;20199;-82
2022/07/06 10:38:35;;;;;;;0.77;0.68;;;18.80;99.90;;;;;;5065695;28;20208;-84
2022/07/06 10:41:06;;;;;;;0.80;0.80;;;18.90;99.90;;;;;;5072574;28;20178;-83
2022/07/06 10:43:43;;;;;;;1.00;0.88;;;19.20;99.90;;;;;;5076120;28;20167;-82
2022/07/06 10:46:21;;;;;;;1.50;1.00;;;19.70;99.90;;;;;;5074008;28;20160;-81
2022/07/06 10:48:48;;;;;;;1.05;0.95;;;19.80;99.90;;;;;;5074611;28;20257;-85
2022/07/06 10:51:40;;;;;;;1.42;1.20;;;20.00;99.90;;;;;;5073711;28;20183;-81
2022/07/06 10:54:05;;;;;;;0.75;0.75;;;20.40;99.90;;;;;;5073224;28;20540;-82
2022/07/06 10:56:40;;;;;;;0.90;0.90;;;20.10;99.90;;;;;;5085544;28;20187;-82
2022/07/06 10:59:21;;;;;;;1.40;0.80;;;20.20;99.90;;;;;;5073103;28;20260;-82
2022/07/06 11:02:16;;;;;;;0.90;0.80;;;20.10;99.90;;;;;;5061126;28;20255;-84
2022/07/06 11:04:46;;;;;;;0.90;0.90;;;19.90;99.90;;;;;;5066622;28;20679;-84
2022/07/06 11:07:17;;;;;;;2.05;1.48;;;19.60;99.90;;;;;;5068164;28;20183;-84
2022/07/06 11:10:09;;;;;;;1.02;0.88;;;19.70;99.90;;;;;;5087371;28;20280;-83
2022/07/06 11:12:35;;;;;;;1.10;1.00;;;19.40;99.90;;;;;;5066879;28;20691;-83
2022/07/06 11:15:02;;;;;;;1.08;1.05;;;19.50;99.90;;;;;;5071647;28;20179;-82
2022/07/06 11:17:28;;;;;;;1.00;0.80;;;19.50;99.90;;;;;;5085483;28;20212;-82
2022/07/06 11:20:08;;;;;;;3.13;1.02;;;19.50;99.90;;;;;;5079322;28;20278;-83
2022/07/06 11:22:37;;;;;;;0.88;0.80;;;19.40;99.90;;;;;;5061530;28;20236;-82
2022/07/06 11:25:04;;;;;;;1.15;0.77;;;19.20;99.90;;;;;;5058398;28;20202;-82
2022/07/06 11:27:30;;;;;;;1.60;1.48;;;19.20;99.90;;;;;;5063787;28;20183;-84
2022/07/06 11:29:55;;;;;;;1.20;1.10;;;19.30;99.90;;;;;;5072214;28;20179;-83
2022/07/06 11:32:28;;;;;;;0.90;0.90;;;19.60;99.90;;;;;;5070722;28;20640;-83
2022/07/06 11:34:54;;;;;;;2.15;1.13;;;19.90;99.90;;;;;;5060252;28;20203;-85
2022/07/06 11:37:20;;;;;;;1.10;1.00;;;20.20;99.90;;;;;;5064931;28;20243;-84
2022/07/06 11:39:47;;;;;;;2.05;1.02;;;20.50;99.90;;;;;;5077098;28;20176;-84
2022/07/06 11:42:19;;;;;;;0.80;0.80;;;20.70;99.90;;;;;;5054881;28;20230;-84
2022/07/06 11:44:45;;;;;;;1.10;1.00;;;20.70;99.90;;;;;;5052637;28;20157;-83
2022/07/06 11:47:12;;;;;;;1.70;1.00;;;20.60;99.90;;;;;;5053002;28;20180;-83
2022/07/06 11:49:39;;;;;;;1.30;1.20;;;20.60;99.90;;;;;;5051957;28;20184;-83
2022/07/06 11:52:09;;;;;;;0.90;0.90;;;20.60;99.90;;;;;;5051783;28;20545;-83
2022/07/06 11:54:34;;;;;;;0.98;0.98;;;20.90;99.90;;;;;;5053712;28;20199;-84
2022/07/06 11:57:00;;;;;;;0.90;0.90;;;20.80;99.90;;;;;;5052914;28;20195;-84
2022/07/06 11:59:31;;;;;;;0.82;0.82;;;20.90;99.90;;;;;;5051711;28;20192;-85
2022/07/06 12:02:07;;;;;;;1.48;1.00;;;21.20;99.90;;;;;;5051914;28;20180;-87
2022/07/06 12:04:34;;;;;;;0.80;0.80;;;21.50;99.90;;;;;;5035059;28;20186;-84
2022/07/06 12:07:18;;;;;;;0.80;0.80;;;21.50;99.90;;;;;;5035273;28;20640;-83
2022/07/06 12:09:46;;;;;;;0.85;0.85;;;21.50;99.90;;;;;;5071094;28;20175;-82
2022/07/06 12:12:12;;;;;;;1.10;1.00;;;21.60;99.90;;;;;;5034440;28;20184;-86
2022/07/06 12:14:41;;;;;;;1.08;0.95;;;21.70;99.90;;;;;;5055346;28;20625;-84
2022/07/06 12:17:14;;;;;;;1.02;1.00;;;21.70;99.90;;;;;;5056815;28;20255;-84
2022/07/06 12:19:41;;;;;;;1.10;1.00;;;21.40;99.90;;;;;;5068530;28;20620;-84
2022/07/06 12:22:08;;;;;;;0.80;0.80;;;21.00;99.90;;;;;;5080095;28;20183;-84
2022/07/06 12:24:37;;;;;;;1.10;1.00;;;20.80;99.90;;;;;;5057004;28;20354;-84
2022/07/06 12:27:15;;;;;;;0.90;0.88;;;20.70;99.90;;;;;;5056920;28;20184;-86
2022/07/06 12:29:41;;;;;;;0.80;0.80;;;20.80;99.90;;;;;;5057736;28;20171;-85
2022/07/06 12:32:13;;;;;;;0.95;0.88;;;20.80;99.90;;;;;;5076728;28;20271;-84
2022/07/06 12:34:39;;;;;;;0.60;0.60;;;21.00;99.90;;;;;;5077178;28;20193;-84
2022/07/06 12:37:09;;;;;;;0.80;0.80;;;21.10;99.90;;;;;;5076119;28;20175;-82
2022/07/06 12:39:46;;;;;;;1.70;1.00;;;21.20;99.90;;;;;;5077665;28;20183;-84
2022/07/06 12:42:15;;;;;;;0.75;0.75;;;21.30;99.90;;;;;;5083103;28;20186;-82
2022/07/06 12:45:00;;;;;;;2.63;1.17;;;21.20;99.90;;;;;;5065633;28;20182;-82
2022/07/06 12:47:26;;;;;;;1.15;1.08;;;21.20;99.90;;;;;;5061389;28;20233;-83
2022/07/06 12:50:06;;;;;;;0.60;0.60;;;21.10;99.90;;;;;;5070442;28;20652;-83
2022/07/06 12:52:32;;;;;;;0.85;0.85;;;20.90;99.90;;;;;;5071546;28;20233;-83
2022/07/06 12:55:00;;;;;;;7.78;1.35;;;20.90;99.90;;;;;;5076807;28;20188;-83
2022/07/06 12:57:26;;;;;;;1.40;1.00;;;20.90;99.90;;;;;;5071416;28;20231;-84
2022/07/06 12:59:57;;;;;;;0.75;0.73;;;20.80;99.90;;;;;;5058701;28;20644;-83
2022/07/06 13:02:31;;;;;;;1.10;1.00;;;20.80;99.90;;;;;;5061176;28;20176;-83
2022/07/06 13:04:56;;;;;;;0.90;0.70;;;20.70;99.90;;;;;;5064362;28;20255;-85
2022/07/06 13:07:23;;;;;;;0.60;0.60;;;20.70;99.90;;;;;;5091393;28;20278;-83
2022/07/06 13:09:48;;;;;;;0.70;0.70;;;;;;;;;;5064060;28;20186;-83
2022/07/06 13:12:14;;;;;;;0.93;0.70;;;21.00;99.90;;;;;;5071186;28;20180;-83
2022/07/06 13:14:40;;;;;;;1.75;0.93;;;21.20;99.90;;;;;;5054711;28;20214;-83
2022/07/06 13:17:06;;;;;;;1.08;0.77;;;;;;;;;;5055933;28;20534;-87
2022/07/06 13:19:31;;;;;;;0.68;0.65;;;21.80;99.90;;;;;;5057342;28;20187;-84
2022/07/06 13:21:57;;;;;;;0.80;0.80;;;21.90;99.90;;;;;;5080637;28;20648;-82
2022/07/06 13:24:22;;;;;;;0.70;0.70;;;21.90;99.90;;;;;;5081777;28;20227;-83
2022/07/06 13:26:48;;;;;;;0.70;0.65;;;21.90;99.90;;;;;;5064409;28;20180;-82
2022/07/06 13:29:14;;;;;;;1.33;0.70;;;22.00;99.90;;;;;;5063057;28;20187;-83
2022/07/06 13:31:40;;;;;;;0.73;0.65;;;22.10;99.90;;;;;;5062170;28;20537;-83